This is the latest recevied weather packets stored in our database for station/object DB0ROB-10. If no packets are shown the sender has not sent any weather packets the latest 10 day(s).
| Time | Temp. | Humidity | Pressure | Rain* | Wind** | Luminosity | Snow |
|---|---|---|---|---|---|---|---|
| 1777713380 | 20° C | 23% | 1021.9 hPa | - | - | - | - |
| 1777712480 | 20° C | 24% | 1022 hPa | - | - | - | - |
| 1777711579 | 20° C | 25% | 1022 hPa | - | - | - | - |
| 1777710679 | 19.44° C | 28% | 1022 hPa | - | - | - | - |
| 1777709779 | 19.44° C | 26% | 1021.9 hPa | - | - | - | - |
| 1777708879 | 19.44° C | 28% | 1021.9 hPa | - | - | - | - |
| 1777707986 | 18.89° C | 26% | 1021.9 hPa | - | - | - | - |
| 1777707086 | 20° C | 24% | 1022 hPa | - | - | - | - |
| 1777706185 | 28.33° C | 14% | 1021.6 hPa | - | - | - | - |
| 1777705285 | 29.44° C | 13% | 1021.6 hPa | - | - | - | - |
| 1777704385 | 28.89° C | 13% | 1021.6 hPa | - | - | - | - |
| 1777703484 | 27.78° C | 14% | 1021.7 hPa | - | - | - | - |
| 1777702583 | 26.67° C | 14% | 1021.6 hPa | - | - | - | - |
| 1777701683 | 27.78° C | 14% | 1021.4 hPa | - | - | - | - |
| 1777700782 | 26.67° C | 15% | 1021.5 hPa | - | - | - | - |
| 1777699882 | 26.67° C | 14% | 1021.5 hPa | - | - | - | - |
| 1777698982 | 25° C | 17% | 1021.4 hPa | - | - | - | - |
| 1777698081 | 23.89° C | 18% | 1021.4 hPa | - | - | - | - |
| 1777697180 | 23.33° C | 19% | 1021.3 hPa | - | - | - | - |
| 1777696280 | 20.56° C | 23% | 1021.4 hPa | - | - | - | - |
| 1777695380 | 17.78° C | 26% | 1021.5 hPa | - | - | - | - |
| 1777694479 | 11.11° C | 39% | 1021.5 hPa | - | - | - | - |
| 1777693579 | 10.56° C | 40% | 1021.6 hPa | - | - | - | - |
| 1777692679 | 11.11° C | 40% | 1021.6 hPa | - | - | - | - |
| 1777691779 | 11.67° C | 37% | 1021.6 hPa | - | - | - | - |
* Rain since midnight (hover to see other rain measurements)
** Current wind speed in m/s (hover to see current wind gust speed)